Accueil
METAR-TAF:

METAR-TAF

Aéroports :

Aéroport de Peawanuck

Peawanuck, Ontario, Canada

latitude: 54-59-17N, longitude: 85-26-36W, altitude: 53 m

Observation

Le bulletin a été fait il y a 42 minutes, à 15:00 UTC
Vent 12 kt de est avec des rafales jusqu'à 21 kt, variant entre nord-est et est/sud-est
Température 6°C
Humidité 56%
Pression 1014 hPa
Visibilité: 14.5 km
Ciel clair

METAR: CYPO 021500Z AUTO 08012G21KT 050V120 9SM CLR 06/M02 A2993 RMK SLP139

Heure: 11:42 (15:42 UTC)


TAF: absent

Observations et prévisions météorologiques de plus de 4000 aéroports (messages METAR et TAF).

Les stations disponibles sont représentées par des disques jaunes et rouges sur la carte.

Passer la souris dessus pour voir le nom de la station.

Cliquer dessus pour voir les observations et prévisions météorologiques.

Pour changer de carte: cliquez sur les boutons verts avec une croix noire pour zoomer, sur le bouton vert avec un tiret pour effectuer un zoom arrière, ou sur les flèches vertes pour les cartes adjacentes.


METAR-TAF: